createdAt,value
2023-04-27T00:01:09.692Z,101165.38
2023-04-27T00:03:36.474Z,101162.97
2023-04-27T00:06:03.430Z,101162.38
2023-04-27T00:08:31.686Z,101158.44
2023-04-27T00:10:58.512Z,101157.81
2023-04-27T00:13:25.165Z,101141.13
2023-04-27T00:15:52.157Z,101160.88
2023-04-27T00:18:19.230Z,101169.59
2023-04-27T00:20:46.180Z,101159.19
2023-04-27T00:23:12.781Z,101168.19
2023-04-27T00:25:41.168Z,101164.81
2023-04-27T00:28:07.772Z,101159.66
2023-04-27T00:30:34.378Z,101161.63
2023-04-27T00:33:01.137Z,101159.09
2023-04-27T00:35:27.815Z,101137.47
2023-04-27T00:37:54.556Z,101167.34
2023-04-27T00:40:21.520Z,101157.78
2023-04-27T00:42:49.452Z,101163.03
2023-04-27T00:45:16.338Z,101167.72
2023-04-27T00:47:44.989Z,101169.50
2023-04-27T00:50:11.721Z,101175.00
2023-04-27T00:52:38.943Z,101163.13
2023-04-27T00:55:06.535Z,101169.94
2023-04-27T00:57:33.400Z,101172.41
2023-04-27T01:00:01.497Z,101173.03
2023-04-27T01:02:29.783Z,101145.91
2023-04-27T01:04:56.919Z,101162.19
2023-04-27T01:07:25.312Z,101168.38
2023-04-27T01:09:52.128Z,101162.56
2023-04-27T01:12:18.684Z,101164.69
2023-04-27T01:14:45.518Z,101168.34
2023-04-27T01:17:14.039Z,101171.19
2023-04-27T01:19:40.825Z,101176.59
2023-04-27T01:22:07.443Z,101161.53
2023-04-27T01:24:35.355Z,101167.34
2023-04-27T01:27:04.824Z,101175.19
2023-04-27T01:29:31.422Z,101169.22
2023-04-27T01:31:58.071Z,101167.88
2023-04-27T01:34:24.679Z,101164.50
2023-04-27T01:36:51.209Z,101170.78
2023-04-27T01:39:17.816Z,101166.34
2023-04-27T01:41:45.772Z,101161.47
2023-04-27T01:44:12.392Z,101138.63
2023-04-27T01:46:39.011Z,101164.28
2023-04-27T01:49:07.076Z,101171.94
2023-04-27T01:51:34.117Z,101173.84
2023-04-27T01:54:00.900Z,101166.81
2023-04-27T01:56:27.464Z,101171.94
2023-04-27T01:58:56.974Z,101168.50
2023-04-27T02:01:24.367Z,101173.00
2023-04-27T02:03:51.124Z,101184.13
2023-04-27T02:06:17.825Z,101186.72
2023-04-27T02:08:46.044Z,101182.63
2023-04-27T02:11:12.732Z,101184.69
2023-04-27T02:13:39.639Z,101190.69
2023-04-27T02:16:08.235Z,101191.47
2023-04-27T02:18:34.780Z,101185.47
2023-04-27T02:21:02.019Z,101183.69
2023-04-27T02:23:28.568Z,101176.75
2023-04-27T02:25:55.434Z,101181.34
2023-04-27T02:28:24.585Z,101188.44
2023-04-27T02:30:51.514Z,101184.13
2023-04-27T02:33:19.474Z,101183.75
2023-04-27T02:35:46.080Z,101182.25
2023-04-27T02:38:12.602Z,101176.19
2023-04-27T02:40:39.199Z,101191.31
2023-04-27T02:43:06.644Z,101184.47
2023-04-27T02:45:37.246Z,101174.63
2023-04-27T02:48:06.011Z,101192.59
2023-04-27T02:50:40.462Z,101183.41
2023-04-27T02:53:07.380Z,101174.78
2023-04-27T02:55:33.934Z,101165.13
2023-04-27T02:58:00.575Z,101186.00
2023-04-27T03:00:27.207Z,101179.59
2023-04-27T03:02:53.988Z,101168.63
2023-04-27T03:05:21.095Z,101180.00
2023-04-27T03:07:49.095Z,101173.19
2023-04-27T03:10:15.646Z,101172.34
2023-04-27T03:12:43.000Z,101175.03
2023-04-27T03:15:10.282Z,101167.97
2023-04-27T03:17:36.912Z,101161.22
2023-04-27T03:20:04.105Z,101152.88
2023-04-27T03:22:31.090Z,101160.03
2023-04-27T03:24:59.133Z,101166.03
2023-04-27T03:27:25.740Z,101173.88
2023-04-27T03:29:52.542Z,101160.72
2023-04-27T03:32:19.379Z,101170.34
2023-04-27T03:34:45.977Z,101159.31
2023-04-27T03:37:12.698Z,101172.69
2023-04-27T03:39:39.768Z,101171.94
2023-04-27T03:42:07.837Z,101175.66
2023-04-27T03:44:34.741Z,101174.16
2023-04-27T03:47:01.813Z,101163.69
2023-04-27T03:49:28.862Z,101168.31
2023-04-27T03:51:56.088Z,101172.38
2023-04-27T03:54:22.637Z,101174.03
2023-04-27T03:56:49.791Z,101169.84
2023-04-27T03:59:19.203Z,101172.63
2023-04-27T04:01:49.326Z,101172.97
2023-04-27T04:04:16.315Z,101181.06
2023-04-27T04:06:43.224Z,101183.97
2023-04-27T04:09:11.546Z,101185.03
2023-04-27T04:11:39.602Z,101191.22
2023-04-27T04:14:07.189Z,101185.13
2023-04-27T04:16:35.367Z,101186.00
2023-04-27T04:19:01.926Z,101164.19
2023-04-27T04:21:28.516Z,101193.72
2023-04-27T04:23:55.273Z,101191.13
2023-04-27T04:26:23.056Z,101182.69
2023-04-27T04:28:49.549Z,101203.97
2023-04-27T04:31:16.120Z,101204.88
2023-04-27T04:33:44.077Z,101198.97
2023-04-27T04:36:10.813Z,101204.38
2023-04-27T04:38:37.954Z,101191.19
2023-04-27T04:41:05.032Z,101203.47
2023-04-27T04:43:33.390Z,101202.69
2023-04-27T04:46:03.654Z,101206.91
2023-04-27T04:48:30.231Z,101207.16
2023-04-27T04:50:58.146Z,101209.03
2023-04-27T04:53:24.728Z,101214.47
2023-04-27T04:55:51.326Z,101214.75
2023-04-27T04:58:17.892Z,101220.88
2023-04-27T05:00:44.549Z,101219.97
2023-04-27T05:03:11.541Z,101212.38
2023-04-27T05:05:38.120Z,101219.63
2023-04-27T05:08:06.300Z,101220.69
2023-04-27T05:10:32.865Z,101223.31
2023-04-27T05:12:59.406Z,101224.16
2023-04-27T05:15:26.076Z,101227.69
2023-04-27T05:17:52.692Z,101230.25
2023-04-27T05:20:19.386Z,101218.94
2023-04-27T05:22:45.914Z,101232.47
2023-04-27T05:25:13.858Z,101243.59
2023-04-27T05:27:40.450Z,101233.97
2023-04-27T05:30:08.162Z,101229.84
2023-04-27T05:32:34.735Z,101238.22
2023-04-27T05:35:01.277Z,101236.44
2023-04-27T05:37:27.832Z,101237.13
2023-04-27T05:39:54.458Z,101245.56
2023-04-27T05:42:22.375Z,101246.25
2023-04-27T05:44:48.916Z,101245.75
2023-04-27T05:47:15.446Z,101239.47
2023-04-27T05:49:41.961Z,101234.16
2023-04-27T05:52:08.510Z,101247.63
2023-04-27T05:54:35.323Z,101252.59
2023-04-27T05:57:01.840Z,101254.00
2023-04-27T05:59:29.748Z,101245.31
2023-04-27T06:01:56.297Z,101244.97
2023-04-27T06:04:22.982Z,101259.00
2023-04-27T06:06:49.697Z,101261.84
2023-04-27T06:09:16.370Z,101262.34
2023-04-27T06:11:42.965Z,101218.56
2023-04-27T06:14:09.549Z,101247.50
2023-04-27T06:16:37.467Z,101257.19
2023-04-27T06:19:04.008Z,101256.84
2023-04-27T06:21:32.322Z,101255.00
2023-04-27T06:23:58.894Z,101260.28
2023-04-27T06:26:25.442Z,101264.88
2023-04-27T06:28:51.988Z,101266.19
2023-04-27T06:31:18.836Z,101273.41
2023-04-27T06:33:46.739Z,101270.03
2023-04-27T06:36:13.340Z,101273.03
2023-04-27T06:38:39.845Z,101257.19
2023-04-27T06:41:06.354Z,101275.00
2023-04-27T06:43:32.895Z,101270.84
2023-04-27T06:45:59.471Z,101269.25
2023-04-27T06:48:25.974Z,101266.50
2023-04-27T06:50:53.886Z,101272.22
2023-04-27T06:53:20.437Z,101262.44
2023-04-27T06:55:48.532Z,101265.94
2023-04-27T06:58:15.338Z,101243.13
2023-04-27T07:00:41.901Z,101270.91
2023-04-27T07:03:08.601Z,101271.88
2023-04-27T07:05:35.396Z,101247.06
2023-04-27T07:08:06.168Z,101260.78
2023-04-27T07:10:35.131Z,101245.22
2023-04-27T07:13:01.739Z,101259.75
2023-04-27T07:15:28.363Z,101262.03
2023-04-27T07:17:54.906Z,101253.53
2023-04-27T07:20:21.540Z,101256.13
2023-04-27T07:22:48.049Z,101264.31
2023-04-27T07:25:16.246Z,101253.75
2023-04-27T07:27:43.037Z,101252.56
2023-04-27T07:30:10.472Z,101236.41
2023-04-27T07:32:39.436Z,101250.44
2023-04-27T07:35:09.502Z,101245.84
2023-04-27T07:37:36.246Z,101245.53
2023-04-27T07:40:03.148Z,101242.22
2023-04-27T07:42:31.102Z,101241.53
2023-04-27T07:44:57.618Z,101240.72
2023-04-27T07:47:24.140Z,101241.00
2023-04-27T07:49:50.702Z,101240.16
2023-04-27T07:52:17.274Z,101238.91
2023-04-27T07:54:43.817Z,101236.47
2023-04-27T07:57:10.910Z,101229.19
2023-04-27T07:59:39.250Z,101220.41
2023-04-27T08:02:18.308Z,101229.63
2023-04-27T08:04:46.295Z,101234.31
2023-04-27T08:07:13.314Z,101235.16
2023-04-27T08:09:40.014Z,101229.03
2023-04-27T08:12:06.834Z,101225.53
2023-04-27T08:14:34.354Z,101234.81
2023-04-27T08:17:02.535Z,101224.94
2023-04-27T08:19:29.307Z,101226.59
2023-04-27T08:21:55.863Z,101225.16
2023-04-27T08:24:22.559Z,101223.53
2023-04-27T08:26:49.102Z,101224.03
2023-04-27T08:29:26.959Z,101220.63
2023-04-27T08:31:56.927Z,101210.00
2023-04-27T08:34:25.129Z,101218.41
2023-04-27T08:36:51.772Z,101215.09
2023-04-27T08:39:18.481Z,101210.34
2023-04-27T08:41:45.670Z,101190.66
2023-04-27T08:44:12.313Z,101209.00
2023-04-27T08:46:39.423Z,101214.28
2023-04-27T08:49:06.431Z,101201.81
2023-04-27T08:51:34.685Z,101203.38
2023-04-27T08:54:01.522Z,101202.13
2023-04-27T08:56:29.514Z,101200.94
2023-04-27T08:58:57.857Z,101202.06
2023-04-27T09:01:25.545Z,101193.16
2023-04-27T09:03:56.079Z,101202.59
2023-04-27T09:06:29.721Z,101195.75
2023-04-27T09:08:57.748Z,101206.69
2023-04-27T09:11:29.422Z,101209.53
2023-04-27T09:13:55.922Z,101198.03
2023-04-27T09:16:23.615Z,101191.56
2023-04-27T09:18:50.366Z,101187.41
2023-04-27T09:21:22.666Z,101175.44
2023-04-27T09:23:49.607Z,101181.47
2023-04-27T09:26:21.654Z,101173.31
2023-04-27T09:28:49.928Z,101179.66
2023-04-27T09:31:16.671Z,101186.34
2023-04-27T09:33:44.886Z,101164.53
2023-04-27T09:36:11.586Z,101169.91
2023-04-27T09:38:38.432Z,101165.31
2023-04-27T09:41:07.779Z,101176.31
2023-04-27T09:43:36.142Z,101173.00
2023-04-27T09:46:04.434Z,101174.91
2023-04-27T09:48:31.343Z,101164.97
2023-04-27T09:50:57.897Z,101160.19
2023-04-27T09:53:28.992Z,101164.59
2023-04-27T09:56:09.917Z,101159.00
2023-04-27T09:58:54.552Z,101157.75
2023-04-27T10:01:30.378Z,101155.56
2023-04-27T10:04:11.635Z,101159.03
2023-04-27T10:07:09.822Z,101156.63
2023-04-27T10:09:37.766Z,101156.75
2023-04-27T10:12:16.024Z,101160.13
2023-04-27T10:14:51.695Z,101151.44
2023-04-27T10:17:19.294Z,101157.16
2023-04-27T10:19:58.366Z,101137.38
2023-04-27T10:22:37.412Z,101140.59
2023-04-27T10:25:13.199Z,101138.94
2023-04-27T10:27:40.110Z,101133.81
2023-04-27T10:30:12.006Z,101145.97
2023-04-27T10:32:49.748Z,101139.97
2023-04-27T10:35:16.798Z,101147.13
2023-04-27T10:37:43.793Z,101149.06
2023-04-27T10:40:13.050Z,101135.69
2023-04-27T10:42:39.984Z,101135.34
2023-04-27T10:45:07.819Z,101128.38
2023-04-27T10:47:40.550Z,101129.34
2023-04-27T10:50:08.977Z,101122.09
2023-04-27T10:52:35.525Z,101127.03
2023-04-27T10:55:13.628Z,101124.22
2023-04-27T10:57:46.468Z,101117.09
2023-04-27T11:00:16.469Z,101108.69
2023-04-27T11:02:44.590Z,101112.22
2023-04-27T11:05:17.909Z,101107.31
2023-04-27T11:07:44.849Z,101105.84
2023-04-27T11:10:15.526Z,101088.88
2023-04-27T11:12:42.515Z,101105.22
2023-04-27T11:15:09.974Z,101105.84
2023-04-27T11:17:36.679Z,101083.72
2023-04-27T11:20:05.934Z,101099.16
2023-04-27T11:22:32.646Z,101102.53
2023-04-27T11:24:59.231Z,101093.09
2023-04-27T11:27:36.931Z,101096.25
2023-04-27T11:30:04.233Z,101099.63
2023-04-27T11:32:30.864Z,101090.78
2023-04-27T11:34:59.606Z,101095.19
2023-04-27T11:37:27.793Z,101072.38
2023-04-27T11:39:54.934Z,101085.25
2023-04-27T11:42:22.879Z,101089.09
2023-04-27T11:44:53.625Z,101081.97
2023-04-27T11:47:20.354Z,101067.78
2023-04-27T11:49:47.940Z,101070.47
2023-04-27T11:52:14.536Z,101066.44
2023-04-27T11:54:48.537Z,101070.97
2023-04-27T11:57:15.199Z,101056.78
2023-04-27T11:59:41.972Z,101073.25
2023-04-27T12:02:08.837Z,101065.88
2023-04-27T12:04:35.572Z,101063.41
2023-04-27T12:07:02.764Z,101057.38
2023-04-27T12:09:29.498Z,101049.28
2023-04-27T12:11:57.803Z,101046.06
2023-04-27T12:14:24.327Z,101043.06
2023-04-27T12:16:50.985Z,101053.59
2023-04-27T12:19:17.553Z,101046.31
2023-04-27T12:21:44.222Z,101040.00
2023-04-27T12:24:10.813Z,101041.28
2023-04-27T12:26:37.503Z,101045.13
2023-04-27T12:29:05.421Z,101043.28
2023-04-27T12:31:32.401Z,101028.59
2023-04-27T12:33:59.075Z,101022.72
2023-04-27T12:36:25.652Z,101031.28
2023-04-27T12:38:52.165Z,101032.97
2023-04-27T12:41:18.815Z,101031.66
2023-04-27T12:43:45.360Z,101035.03
2023-04-27T12:46:13.413Z,101022.81
2023-04-27T12:48:40.018Z,101027.50
2023-04-27T12:51:06.759Z,101011.31
2023-04-27T12:53:33.349Z,101023.94
2023-04-27T12:56:00.541Z,101010.22
2023-04-27T12:58:27.280Z,101025.28
2023-04-27T13:00:54.961Z,101029.53
2023-04-27T13:03:23.065Z,101027.34
2023-04-27T13:05:49.891Z,101024.31
2023-04-27T13:08:16.475Z,101028.91
2023-04-27T13:10:43.152Z,101028.91
2023-04-27T13:13:09.685Z,101014.53
2023-04-27T13:15:36.486Z,101019.75
2023-04-27T13:18:03.124Z,101002.97
2023-04-27T13:20:31.180Z,101019.22
2023-04-27T13:22:57.972Z,101023.19
2023-04-27T13:25:24.579Z,101019.13
2023-04-27T13:27:51.182Z,101016.16
2023-04-27T13:30:17.862Z,101015.53
2023-04-27T13:32:44.435Z,101005.25
2023-04-27T13:35:11.014Z,101001.72
2023-04-27T13:37:40.040Z,101012.44
2023-04-27T13:40:08.315Z,101012.84
2023-04-27T13:42:34.867Z,100999.97
2023-04-27T13:45:01.516Z,101017.06
2023-04-27T13:47:28.061Z,101012.66
2023-04-27T13:49:54.664Z,101013.38
2023-04-27T13:52:21.520Z,101006.47
2023-04-27T13:54:49.459Z,100997.19
2023-04-27T13:57:16.010Z,101000.06
2023-04-27T13:59:42.614Z,101000.59
2023-04-27T14:02:09.217Z,101006.16
2023-04-27T14:04:35.911Z,100994.41
2023-04-27T14:07:02.570Z,100992.97
2023-04-27T14:09:29.189Z,100999.69
2023-04-27T14:11:57.460Z,100992.72
2023-04-27T14:14:24.617Z,100997.19
2023-04-27T14:16:51.813Z,100990.63
2023-04-27T14:19:18.899Z,100984.97
2023-04-27T14:21:45.558Z,100984.53
2023-04-27T14:24:12.129Z,100977.84
2023-04-27T14:26:38.892Z,100980.66
2023-04-27T14:29:06.866Z,100974.56
2023-04-27T14:31:33.456Z,100979.16
2023-04-27T14:34:00.164Z,100974.00
2023-04-27T14:36:26.718Z,100972.88
2023-04-27T14:38:53.291Z,100973.56
2023-04-27T14:41:19.866Z,100972.72
2023-04-27T14:43:46.502Z,100960.56
2023-04-27T14:46:20.917Z,100957.78
2023-04-27T14:48:49.587Z,100952.34
2023-04-27T14:51:16.581Z,100945.22
2023-04-27T14:53:43.298Z,100943.03
2023-04-27T14:56:09.889Z,100937.13
2023-04-27T14:58:36.409Z,100929.06
2023-04-27T15:01:03.355Z,100933.38
2023-04-27T15:03:31.602Z,100929.34
2023-04-27T15:05:58.273Z,100925.34
2023-04-27T15:08:25.123Z,100911.66
2023-04-27T15:10:51.700Z,100927.25
2023-04-27T15:13:18.230Z,100916.88
2023-04-27T15:15:44.793Z,100915.31
2023-04-27T15:18:11.533Z,100909.16
2023-04-27T15:20:39.410Z,100909.75
2023-04-27T15:23:05.961Z,100907.63
2023-04-27T15:25:32.609Z,100879.34
2023-04-27T15:27:59.157Z,100897.41
2023-04-27T15:30:25.886Z,100895.16
2023-04-27T15:32:52.465Z,100899.31
2023-04-27T15:35:19.054Z,100904.78
2023-04-27T15:37:46.934Z,100900.81
2023-04-27T15:40:13.598Z,100898.22
2023-04-27T15:42:40.118Z,100898.94
2023-04-27T15:45:09.995Z,100898.66
2023-04-27T15:47:37.011Z,100890.22
2023-04-27T15:50:04.244Z,100881.78
2023-04-27T15:52:30.777Z,100881.75
2023-04-27T15:54:58.750Z,100888.13
2023-04-27T15:57:25.307Z,100879.47
2023-04-27T15:59:52.059Z,100864.16
2023-04-27T16:02:18.881Z,100849.06
2023-04-27T16:04:45.492Z,100876.19
2023-04-27T16:07:12.029Z,100879.06
2023-04-27T16:09:38.639Z,100872.41
2023-04-27T16:12:06.754Z,100868.66
2023-04-27T16:14:33.295Z,100849.72
2023-04-27T16:17:02.066Z,100865.63
2023-04-27T16:19:28.891Z,100855.00
2023-04-27T16:21:55.437Z,100859.34
2023-04-27T16:24:22.022Z,100860.97
2023-04-27T16:26:48.662Z,100857.84
2023-04-27T16:29:16.839Z,100857.50
2023-04-27T16:31:43.590Z,100855.06
2023-04-27T16:34:10.151Z,100848.53
2023-04-27T16:36:36.695Z,100849.16
2023-04-27T16:39:03.396Z,100850.03
2023-04-27T16:41:29.923Z,100839.50
2023-04-27T16:43:56.572Z,100843.72
2023-04-27T16:46:24.555Z,100853.28
2023-04-27T16:48:51.090Z,100843.38
2023-04-27T16:51:17.620Z,100840.78
2023-04-27T16:53:44.152Z,100839.53
2023-04-27T16:56:10.713Z,100849.13
2023-04-27T16:58:37.281Z,100843.59
2023-04-27T17:01:03.874Z,100833.97
2023-04-27T17:03:31.892Z,100834.44
2023-04-27T17:05:58.480Z,100821.06
2023-04-27T17:08:25.051Z,100836.84
2023-04-27T17:10:52.515Z,100833.13
2023-04-27T17:13:19.123Z,100822.59
2023-04-27T17:15:45.698Z,100832.38
2023-04-27T17:18:12.235Z,100827.50
2023-04-27T17:20:41.677Z,100826.63
2023-04-27T17:23:08.949Z,100821.78
2023-04-27T17:25:35.650Z,100826.03
2023-04-27T17:28:02.182Z,100824.78
2023-04-27T17:30:29.105Z,100823.53
2023-04-27T17:32:55.694Z,100822.94
2023-04-27T17:35:25.104Z,100795.16
2023-04-27T17:37:53.354Z,100801.53
2023-04-27T17:40:19.979Z,100796.59
2023-04-27T17:42:46.878Z,100803.09
2023-04-27T17:45:13.696Z,100806.00
2023-04-27T17:47:40.384Z,100807.34
2023-04-27T17:50:08.483Z,100805.41
2023-04-27T17:52:35.113Z,100802.72
2023-04-27T17:55:03.213Z,100808.03
2023-04-27T17:57:29.714Z,100799.22
2023-04-27T17:59:56.389Z,100801.41
2023-04-27T18:02:23.067Z,100807.03
2023-04-27T18:04:49.697Z,100806.03
2023-04-27T18:07:16.226Z,100797.88
2023-04-27T18:09:42.728Z,100803.88
2023-04-27T18:12:10.614Z,100777.69
2023-04-27T18:14:37.451Z,100795.50
2023-04-27T18:17:04.233Z,100802.81
2023-04-27T18:19:30.801Z,100784.16
2023-04-27T18:21:57.369Z,100788.63
2023-04-27T18:24:23.928Z,100792.78
2023-04-27T18:26:50.530Z,100784.88
2023-04-27T18:29:18.634Z,100780.84
2023-04-27T18:31:45.461Z,100789.81
2023-04-27T18:34:12.208Z,100793.06
2023-04-27T18:36:38.776Z,100794.03
2023-04-27T18:39:05.287Z,100791.63
2023-04-27T18:41:31.982Z,100787.56
2023-04-27T18:44:03.041Z,100793.19
2023-04-27T18:46:31.083Z,100794.81
2023-04-27T18:48:57.754Z,100771.72
2023-04-27T18:51:24.634Z,100779.59
2023-04-27T18:53:51.121Z,100799.25
2023-04-27T18:56:17.718Z,100798.50
2023-04-27T18:58:44.323Z,100780.75
2023-04-27T19:01:18.569Z,100792.66
2023-04-27T19:03:46.718Z,100780.53
2023-04-27T19:06:13.402Z,100783.56
2023-04-27T19:08:39.985Z,100768.31
2023-04-27T19:11:06.529Z,100789.25
2023-04-27T19:13:33.128Z,100786.38
2023-04-27T19:15:59.699Z,100792.13
2023-04-27T19:18:26.682Z,100767.78
2023-04-27T19:20:54.560Z,100786.19
2023-04-27T19:23:21.118Z,100791.09
2023-04-27T19:25:47.718Z,100778.59
2023-04-27T19:28:16.009Z,100767.06
2023-04-27T19:30:42.594Z,100776.16
2023-04-27T19:33:09.219Z,100775.59
2023-04-27T19:35:35.847Z,100775.22
2023-04-27T19:38:03.998Z,100773.44
2023-04-27T19:40:32.567Z,100783.19
2023-04-27T19:42:59.353Z,100788.91
2023-04-27T19:45:25.918Z,100782.09
2023-04-27T19:47:52.596Z,100765.69
2023-04-27T19:50:19.487Z,100794.28
2023-04-27T19:52:46.268Z,100791.38
2023-04-27T19:55:14.278Z,100778.69
2023-04-27T19:57:40.969Z,100799.91
2023-04-27T20:00:08.615Z,100793.53
2023-04-27T20:02:39.831Z,100796.75
2023-04-27T20:05:07.121Z,100800.09
2023-04-27T20:07:33.898Z,100799.41
2023-04-27T20:10:00.872Z,100803.34
2023-04-27T20:12:43.543Z,100786.06
2023-04-27T20:15:15.605Z,100792.47
2023-04-27T20:17:42.244Z,100793.88
2023-04-27T20:20:09.740Z,100788.59
2023-04-27T20:22:36.620Z,100790.97
2023-04-27T20:25:03.614Z,100788.44
2023-04-27T20:27:31.946Z,100782.44
2023-04-27T20:29:58.525Z,100778.56
2023-04-27T20:32:25.107Z,100738.44
2023-04-27T20:34:51.757Z,100744.72
2023-04-27T20:37:18.400Z,100766.72
2023-04-27T20:39:45.023Z,100771.19
2023-04-27T20:42:11.581Z,100745.13
2023-04-27T20:44:39.622Z,100776.91
2023-04-27T20:47:06.199Z,100768.50
2023-04-27T20:49:35.383Z,100769.50
2023-04-27T20:52:03.304Z,100766.88
2023-04-27T20:54:29.873Z,100766.28
2023-04-27T20:56:56.390Z,100770.03
2023-04-27T20:59:22.981Z,100770.88
2023-04-27T21:01:54.991Z,100766.25
2023-04-27T21:04:21.756Z,100767.97
2023-04-27T21:06:48.337Z,100743.13
2023-04-27T21:09:14.942Z,100766.81
2023-04-27T21:11:41.545Z,100773.78
2023-04-27T21:14:08.142Z,100774.50
2023-04-27T21:16:34.751Z,100766.69
2023-04-27T21:19:02.754Z,100764.88
2023-04-27T21:21:29.311Z,100764.16
2023-04-27T21:24:06.776Z,100758.03
2023-04-27T21:26:34.671Z,100748.28
2023-04-27T21:29:01.203Z,100751.22
2023-04-27T21:31:27.850Z,100751.63
2023-04-27T21:33:54.423Z,100747.59
2023-04-27T21:36:22.343Z,100742.84
2023-04-27T21:38:48.992Z,100730.06
2023-04-27T21:41:15.600Z,100731.72
2023-04-27T21:43:42.223Z,100724.88
2023-04-27T21:46:09.270Z,100686.03
2023-04-27T21:48:35.941Z,100717.25
2023-04-27T21:51:02.869Z,100712.94
2023-04-27T21:53:30.790Z,100705.84
2023-04-27T21:55:57.512Z,100705.97
2023-04-27T21:58:24.112Z,100706.94
2023-04-27T22:00:50.771Z,100702.47
2023-04-27T22:03:17.747Z,100706.22
2023-04-27T22:05:44.489Z,100705.38
2023-04-27T22:08:10.991Z,100677.41
2023-04-27T22:10:38.951Z,100692.31
2023-04-27T22:13:17.704Z,100646.50
2023-04-27T22:15:45.305Z,100693.00
2023-04-27T22:18:11.849Z,100697.63
2023-04-27T22:20:38.445Z,100690.38
2023-04-27T22:23:05.062Z,100669.63
2023-04-27T22:25:33.164Z,100683.44
2023-04-27T22:28:01.345Z,100654.03
2023-04-27T22:30:28.324Z,100681.47
2023-04-27T22:32:55.671Z,100682.16
2023-04-27T22:35:27.147Z,100676.75
2023-04-27T22:37:54.836Z,100677.72
2023-04-27T22:40:21.486Z,100679.53
2023-04-27T22:42:48.091Z,100675.91
2023-04-27T22:45:16.148Z,100630.38
2023-04-27T22:47:42.792Z,100673.56
2023-04-27T22:50:10.341Z,100676.34
2023-04-27T22:52:37.204Z,100671.47
2023-04-27T22:55:04.407Z,100672.97
2023-04-27T22:57:30.982Z,100667.44
2023-04-27T22:59:57.598Z,100661.56
2023-04-27T23:02:25.635Z,100655.75
2023-04-27T23:04:52.192Z,100651.00
2023-04-27T23:07:18.762Z,100637.75
2023-04-27T23:09:45.503Z,100659.06
2023-04-27T23:12:12.099Z,100652.66
2023-04-27T23:14:38.654Z,100653.50
2023-04-27T23:17:05.285Z,100648.50
2023-04-27T23:19:33.236Z,100645.00
2023-04-27T23:22:00.361Z,100640.16
2023-04-27T23:24:26.965Z,100635.41
2023-04-27T23:26:53.562Z,100644.75
2023-04-27T23:29:20.077Z,100638.75
2023-04-27T23:31:46.654Z,100618.28
2023-04-27T23:34:13.322Z,100636.25
2023-04-27T23:36:41.493Z,100630.00
2023-04-27T23:39:08.112Z,100617.59
2023-04-27T23:41:34.694Z,100611.50
2023-04-27T23:44:01.244Z,100623.72
2023-04-27T23:46:28.066Z,100622.06
2023-04-27T23:48:54.610Z,100593.25
2023-04-27T23:51:21.277Z,100599.78
2023-04-27T23:53:49.159Z,100611.63
2023-04-27T23:56:17.024Z,100580.88
2023-04-27T23:58:43.591Z,100593.81
